Time;durP1;ratioP1;P1;durP2;ratioP2;P2;SDS_P1;SDS_P2;PMS_P1;PMS_P2;Temp;Humidity;BMP_temperature;BMP_pressure;BME280_temperature;BME280_humidity;BME280_pressure;Samples;Min_cycle;Max_cycle;Signal;HPM_P1;HPM_P2
2023/03/31 00:01:41;;;;;;;6.57;2.20;;;;;;;-148.88;100.00;75188.22;5075693;28;20114;-76
2023/03/31 00:04:08;;;;;;;8.60;2.28;;;;;;;-148.88;100.00;75194.31;5057413;28;20039;-75
2023/03/31 00:06:37;;;;;;;6.20;2.13;;;;;;;-148.88;100.00;75180.09;5075760;28;20383;-76
2023/03/31 00:09:05;;;;;;;7.72;1.35;;;;;;;-148.88;100.00;75194.31;5075167;28;20060;-76
2023/03/31 00:11:30;;;;;;;8.90;2.30;;;;;;;-148.88;100.00;75184.16;5074639;28;20028;-76
2023/03/31 00:13:56;;;;;;;6.57;2.20;;;;;;;-148.88;100.00;75186.19;5055652;28;20031;-76
2023/03/31 00:16:21;;;;;;;8.23;2.35;;;;;;;-148.88;100.00;75184.16;5073723;28;20025;-76
2023/03/31 00:18:49;;;;;;;8.52;2.40;;;;;;;-148.88;100.00;75194.31;5073327;28;20029;-76
2023/03/31 00:21:23;;;;;;;6.95;2.25;;;;;;;-148.88;100.00;75188.22;5073793;28;20386;-76
2023/03/31 00:23:53;;;;;;;6.03;1.42;;;;;;;-148.88;100.00;75196.34;5073696;28;20029;-76
2023/03/31 00:26:19;;;;;;;7.93;2.10;;;;;;;-148.88;100.00;75188.22;5073312;28;20027;-76
2023/03/31 00:28:44;;;;;;;6.47;2.00;;;;;;;-148.88;100.00;75184.16;5074030;28;20107;-75
2023/03/31 00:31:10;;;;;;;8.93;2.08;;;;;;;-148.88;100.00;75186.19;5075006;28;20020;-75
2023/03/31 00:33:35;;;;;;;7.75;2.25;;;;;;;-148.88;100.00;75182.13;5056864;28;20052;-76
2023/03/31 00:36:00;;;;;;;5.22;1.77;;;;;;;-148.88;100.00;75190.25;5074600;28;20024;-75
2023/03/31 00:38:28;;;;;;;7.78;1.63;;;;;;;-148.88;100.00;75196.34;5074965;28;20023;-76
2023/03/31 00:40:54;;;;;;;9.35;2.53;;;;;;;-148.88;100.00;75186.19;5056924;28;20025;-76
2023/03/31 00:43:33;;;;;;;4.93;1.23;;;;;;;-148.88;100.00;75194.31;5074488;28;20024;-76
2023/03/31 00:46:14;;;;;;;5.60;2.15;;;;;;;-148.88;100.00;75200.41;5074656;28;20433;-76
2023/03/31 00:48:49;;;;;;;7.10;1.60;;;;;;;-148.88;100.00;75192.28;5073557;28;20016;-76
2023/03/31 00:51:14;;;;;;;6.20;2.20;;;;;;;-148.88;100.00;75196.34;5055045;28;20107;-76
2023/03/31 00:53:41;;;;;;;5.50;1.73;;;;;;;-148.88;100.00;75192.28;5054680;28;20059;-76
2023/03/31 00:56:13;;;;;;;7.47;1.95;;;;;;;-148.88;100.00;75190.25;5072767;28;20029;-76
2023/03/31 00:58:42;;;;;;;8.13;2.28;;;;;;;-148.88;100.00;75190.25;5073493;28;20024;-76
2023/03/31 01:01:13;;;;;;;3.63;1.23;;;;;;;-148.88;100.00;75188.22;5055535;28;20379;-76
2023/03/31 01:03:41;;;;;;;6.18;2.15;;;;;;;-148.88;100.00;75184.16;5072965;28;20086;-77
2023/03/31 01:06:09;;;;;;;5.38;1.95;;;;;;;-148.88;100.00;75186.19;5074161;28;20111;-76
2023/03/31 01:08:37;;;;;;;5.35;2.17;;;;;;;-148.88;100.00;75178.06;5056961;28;20107;-75
2023/03/31 01:11:06;;;;;;;7.65;2.20;;;;;;;-148.88;100.00;75174.00;5056776;28;20501;-75
2023/03/31 01:13:31;;;;;;;7.00;2.20;;;;;;;-148.88;100.00;75186.19;5056705;28;20107;-76
2023/03/31 01:15:57;;;;;;;5.32;1.95;;;;;;;-148.88;100.00;75180.09;5074310;28;20051;-76
2023/03/31 01:18:23;;;;;;;6.07;1.55;;;;;;;-148.88;100.00;75171.97;5073945;28;20027;-76
2023/03/31 01:21:13;;;;;;;6.05;1.83;;;;;;;-148.88;100.00;75163.84;5056447;28;20051;-76
2023/03/31 01:24:03;;;;;;;7.53;2.42;;;;;;;-148.88;100.00;75161.81;5054760;28;20035;-76
2023/03/31 01:26:55;;;;;;;6.30;1.55;;;;;;;-148.88;100.00;75167.91;5072551;28;20029;-76
2023/03/31 01:29:44;;;;;;;5.38;1.15;;;;;;;-148.88;100.00;75167.91;5072941;28;20028;-77
2023/03/31 01:32:45;;;;;;;4.88;1.27;;;;;;;-148.88;100.00;75167.91;5073228;28;20024;-77
2023/03/31 01:35:25;;;;;;;7.82;2.47;;;;;;;-148.88;100.00;75163.84;5072849;28;20086;-76
2023/03/31 01:38:28;;;;;;;4.95;1.95;;;;;;;-148.88;100.00;75171.97;5054539;28;20028;-77
2023/03/31 01:41:15;;;;;;;6.40;2.45;;;;;;;-148.88;100.00;75163.84;5072717;28;20039;-76
2023/03/31 01:43:40;;;;;;;5.90;1.95;;;;;;;-148.88;100.00;75171.97;5074763;28;20099;-75
2023/03/31 01:46:16;;;;;;;9.52;2.72;;;;;;;-148.88;100.00;75157.75;5056319;28;20060;-75
2023/03/31 01:49:16;;;;;;;8.88;2.20;;;;;;;-148.88;100.00;75165.88;5074932;28;20024;-76
2023/03/31 01:51:55;;;;;;;4.15;1.50;;;;;;;-148.88;100.00;75159.78;5055961;28;20016;-76
2023/03/31 01:54:49;;;;;;;6.82;1.27;;;;;;;-148.88;100.00;75161.81;5074238;28;20082;-76
2023/03/31 01:57:27;;;;;;;5.20;1.30;;;;;;;-148.88;100.00;75149.63;5073343;28;20494;-76
2023/03/31 02:00:03;;;;;;;6.28;1.92;;;;;;;-148.88;100.00;75151.66;5072735;28;20032;-77
2023/03/31 02:02:37;;;;;;;7.95;2.00;;;;;;;-148.88;100.00;75147.59;5054650;28;20067;-76
2023/03/31 02:05:09;;;;;;;7.35;2.25;;;;;;;-148.88;100.00;75141.50;5072782;28;20025;-76
2023/03/31 02:07:42;;;;;;;10.82;2.63;;;;;;;-148.88;100.00;75143.53;5076119;28;20086;-76
2023/03/31 02:10:11;;;;;;;5.60;1.20;;;;;;;-148.88;100.00;75137.44;5075984;28;20024;-77
2023/03/31 02:12:40;;;;;;;6.93;1.33;;;;;;;-148.88;100.00;75127.28;5075873;28;20025;-77
2023/03/31 02:15:13;;;;;;;9.05;2.30;;;;;;;-148.88;100.00;75125.25;5075787;28;20025;-76
2023/03/31 02:17:44;;;;;;;9.85;2.42;;;;;;;-148.88;100.00;75119.16;5076201;28;20032;-76
2023/03/31 02:20:14;;;;;;;8.93;1.95;;;;;;;-148.88;100.00;75115.09;5059969;28;20044;-75
2023/03/31 02:22:44;;;;;;;6.80;1.95;;;;;;;-148.88;100.00;75102.91;5077748;28;20418;-76
2023/03/31 02:25:12;;;;;;;11.80;2.33;;;;;;;-148.88;100.00;75111.03;5077531;28;20111;-76
2023/03/31 02:27:42;;;;;;;7.43;1.60;;;;;;;-148.88;100.00;75092.78;5077385;28;20028;-75
2023/03/31 02:30:10;;;;;;;6.00;1.95;;;;;;;-148.88;100.00;75094.81;5077684;28;20046;-76
2023/03/31 02:32:41;;;;;;;7.35;2.35;;;;;;;-148.88;100.00;75090.72;5075745;28;20029;-77
2023/03/31 02:35:11;;;;;;;10.50;1.80;;;;;;;-148.88;100.00;75086.69;5075385;28;20054;-76
2023/03/31 02:37:37;;;;;;;7.30;2.20;;;;;;;-148.88;100.00;75070.44;5057338;28;20056;-77
2023/03/31 02:40:09;;;;;;;4.88;1.23;;;;;;;-148.88;100.00;75078.56;5057361;28;20028;-76
2023/03/31 02:42:35;;;;;;;5.80;2.05;;;;;;;-148.88;100.00;75070.44;5057347;28;20110;-76
2023/03/31 02:45:03;;;;;;;9.48;2.20;;;;;;;-148.88;100.00;75062.31;5075257;28;20031;-76
2023/03/31 02:47:29;;;;;;;4.47;1.10;;;;;;;-148.88;100.00;75054.19;5074883;28;20025;-76
2023/03/31 02:49:58;;;;;;;8.48;2.10;;;;;;;-148.88;100.00;75056.22;5057236;28;20473;-76
2023/03/31 02:52:48;;;;;;;5.78;1.38;;;;;;;-148.88;100.00;75039.97;5075737;28;20036;-76
2023/03/31 02:55:39;;;;;;;4.88;1.90;;;;;;;-148.88;100.00;75042.00;5076159;28;20135;-75
2023/03/31 02:58:43;;;;;;;7.30;1.38;;;;;;;-148.88;100.00;75031.84;5077153;28;20030;-75
2023/03/31 03:01:28;;;;;;;;;;;;;;;-148.88;100.00;75025.75;5059519;28;20025;-76
2023/03/31 03:04:33;;;;;;;6.35;1.25;;;;;;;-148.88;100.00;75013.56;5059165;28;19908;-76
2023/03/31 03:07:37;;;;;;;7.20;1.42;;;;;;;-148.88;100.00;75005.44;5057118;28;20074;-76
2023/03/31 03:10:12;;;;;;;6.47;2.10;;;;;;;-148.88;100.00;75003.41;5053836;28;20036;-76
2023/03/31 03:13:00;;;;;;;4.95;1.83;;;;;;;-148.88;100.00;74995.28;5074958;28;20422;-76
2023/03/31 03:15:34;;;;;;;6.20;2.10;;;;;;;-148.88;100.00;75001.38;5074958;28;20021;-76
2023/03/31 03:18:01;;;;;;;6.72;2.08;;;;;;;-148.88;100.00;75009.50;5056273;28;20025;-76
2023/03/31 03:20:28;;;;;;;5.60;1.40;;;;;;;-148.88;100.00;75003.41;5056575;28;20178;-76
2023/03/31 03:22:54;;;;;;;7.15;2.05;;;;;;;-148.88;100.00;75011.53;5074674;28;20370;-76
2023/03/31 03:25:19;;;;;;;4.60;1.33;;;;;;;-148.88;100.00;75011.53;5074653;28;20505;-76
2023/03/31 03:27:47;;;;;;;7.40;2.70;;;;;;;-148.88;100.00;75011.53;5074399;28;20020;-76
2023/03/31 03:30:13;;;;;;;2.88;1.23;;;;;;;-148.88;100.00;75023.72;5074592;28;20024;-76
2023/03/31 03:32:40;;;;;;;9.85;2.53;;;;;;;-148.88;100.00;75019.66;5074670;28;20479;-75
2023/03/31 03:35:06;;;;;;;9.70;2.30;;;;;;;-148.88;100.00;75021.69;5074547;28;20494;-75
2023/03/31 03:37:31;;;;;;;9.75;2.75;;;;;;;-148.88;100.00;75013.56;5074122;28;20029;-76
2023/03/31 03:39:57;;;;;;;8.85;2.25;;;;;;;-148.88;100.00;75011.53;5074428;28;20102;-76
2023/03/31 03:42:23;;;;;;;6.28;1.30;;;;;;;-148.88;100.00;75005.44;5074186;28;20028;-76
2023/03/31 03:44:48;;;;;;;11.10;2.22;;;;;;;-148.88;100.00;75005.44;5056338;28;20068;-77
2023/03/31 03:47:14;;;;;;;8.52;2.50;;;;;;;-148.88;100.00;75009.50;5074790;28;20047;-78
2023/03/31 03:49:39;;;;;;;10.02;3.15;;;;;;;-148.88;100.00;75007.47;5056294;28;20039;-76
2023/03/31 03:52:05;;;;;;;7.28;2.72;;;;;;;-148.88;100.00;75009.50;5074378;28;20021;-76
2023/03/31 03:54:31;;;;;;;12.48;3.78;;;;;;;-148.88;100.00;75015.59;5073613;28;20051;-76
2023/03/31 03:56:56;;;;;;;8.32;1.60;;;;;;;-148.88;100.00;75011.53;5055962;28;20069;-76
2023/03/31 03:59:21;;;;;;;13.13;2.90;;;;;;;-148.88;100.00;75007.47;5073774;28;20463;-77
2023/03/31 04:01:47;;;;;;;11.55;2.78;;;;;;;-148.88;100.00;75007.47;5074116;28;20030;-77
2023/03/31 04:04:12;;;;;;;8.98;2.50;;;;;;;-148.88;100.00;75001.38;5055820;28;20024;-77
2023/03/31 04:06:37;;;;;;;10.35;3.25;;;;;;;-148.88;100.00;74997.31;5073489;28;20358;-76
2023/03/31 04:09:03;;;;;;;9.20;3.47;;;;;;;-148.88;100.00;74993.25;5073763;28;20028;-76
2023/03/31 04:11:29;;;;;;;8.55;2.20;;;;;;;-148.88;100.00;75003.41;5073560;28;20387;-76
2023/03/31 04:13:54;;;;;;;6.68;1.92;;;;;;;-148.88;100.00;74995.28;5073856;28;20335;-75
2023/03/31 04:16:21;;;;;;;11.95;4.30;;;;;;;-148.88;100.00;74999.34;5055617;28;20021;-77
2023/03/31 04:18:47;;;;;;;13.73;4.60;;;;;;;-148.88;100.00;74993.25;5073430;28;20536;-77
2023/03/31 04:21:21;;;;;;;7.65;2.83;;;;;;;-148.88;100.00;74983.09;5075143;28;20024;-76
2023/03/31 04:23:48;;;;;;;7.65;3.65;;;;;;;-148.88;100.00;74987.16;5074123;28;20402;-77
2023/03/31 04:26:15;;;;;;;11.32;2.35;;;;;;;-148.88;100.00;74977.00;5056540;28;20474;-77
2023/03/31 04:28:45;;;;;;;13.02;5.22;;;;;;;-148.88;100.00;74977.00;5072918;28;20081;-77
2023/03/31 04:31:23;;;;;;;7.15;2.60;;;;;;;-148.88;100.00;74972.94;5073952;28;20028;-77
2023/03/31 04:33:49;;;;;;;9.23;2.88;;;;;;;-148.88;100.00;74968.88;5056207;28;20020;-78
2023/03/31 04:36:17;;;;;;;10.05;5.18;;;;;;;-148.88;100.00;74960.75;5057062;28;20018;-78
2023/03/31 04:38:55;;;;;;;9.43;3.80;;;;;;;-148.88;100.00;74958.72;5056616;28;20028;-78
2023/03/31 04:41:21;;;;;;;7.15;2.70;;;;;;;-148.88;100.00;74964.81;5076809;28;20024;-78
2023/03/31 04:43:47;;;;;;;15.23;6.35;;;;;;;-148.88;100.00;74956.69;5077443;28;20017;-79
2023/03/31 04:46:12;;;;;;;7.07;2.80;;;;;;;-148.88;100.00;74952.63;5055919;28;20090;-77
2023/03/31 04:48:37;;;;;;;8.02;3.50;;;;;;;-148.88;100.00;74946.53;5055601;28;20030;-78
2023/03/31 04:51:03;;;;;;;8.18;3.45;;;;;;;-148.88;100.00;74938.44;5073651;28;20111;-78
2023/03/31 04:53:29;;;;;;;14.75;4.13;;;;;;;-148.88;100.00;74940.47;5076037;28;20020;-78
2023/03/31 04:55:54;;;;;;;8.65;3.70;;;;;;;-148.88;100.00;74944.53;5058855;28;20031;-79
2023/03/31 04:58:21;;;;;;;11.45;5.45;;;;;;;-148.88;100.00;74932.34;5076275;28;20025;-79
2023/03/31 05:00:46;;;;;;;11.80;5.72;;;;;;;-148.88;100.00;74926.25;5076806;28;20074;-78
2023/03/31 05:03:12;;;;;;;9.32;3.35;;;;;;;-148.88;100.00;74926.25;5076399;28;20024;-79
2023/03/31 05:05:37;;;;;;;14.95;6.05;;;;;;;-148.88;100.00;74928.28;5076187;28;20033;-79
2023/03/31 05:08:03;;;;;;;11.70;5.13;;;;;;;-148.88;100.00;74928.28;5058102;28;20024;-79
2023/03/31 05:10:29;;;;;;;9.18;3.08;;;;;;;-148.88;100.00;74934.38;5057762;28;20023;-79
2023/03/31 05:12:54;;;;;;;15.63;5.97;;;;;;;-148.88;100.00;74932.34;5076341;28;20064;-79
2023/03/31 05:15:20;;;;;;;8.23;3.15;;;;;;;-148.88;100.00;74926.25;5059473;28;20078;-80
2023/03/31 05:17:46;;;;;;;12.73;3.70;;;;;;;-148.88;100.00;74928.28;5078338;28;20024;-79
2023/03/31 05:20:12;;;;;;;12.35;3.78;;;;;;;-148.88;100.00;74922.19;5078041;28;20032;-79
2023/03/31 05:22:38;;;;;;;14.73;5.53;;;;;;;-148.88;100.00;74907.97;5073900;28;20025;-78
2023/03/31 05:25:05;;;;;;;10.77;3.10;;;;;;;-148.88;100.00;74891.72;5073919;28;20027;-78
2023/03/31 05:27:31;;;;;;;9.43;3.15;;;;;;;-148.88;100.00;74893.75;5057755;28;20371;-78
2023/03/31 05:29:57;;;;;;;12.15;3.35;;;;;;;-148.88;100.00;74891.72;5078791;28;20577;-79
2023/03/31 05:32:23;;;;;;;10.52;3.67;;;;;;;-148.88;100.00;74891.72;5061036;28;20514;-79
2023/03/31 05:34:51;;;;;;;14.07;5.88;;;;;;;-148.88;100.00;74887.66;5078114;28;20055;-79
2023/03/31 05:37:17;;;;;;;10.43;3.72;;;;;;;-148.88;100.00;74887.66;5077459;28;20012;-79
2023/03/31 05:39:42;;;;;;;15.20;5.57;;;;;;;-148.88;100.00;74891.72;5059726;28;20025;-79
2023/03/31 05:42:07;;;;;;;8.00;2.85;;;;;;;-148.88;100.00;74893.75;5081659;28;20103;-78
2023/03/31 05:44:33;;;;;;;9.52;3.10;;;;;;;-148.88;100.00;74887.66;5081908;28;20025;-78
2023/03/31 05:46:58;;;;;;;15.68;5.78;;;;;;;-148.88;100.00;74887.66;5081319;28;20100;-79
2023/03/31 05:49:24;;;;;;;10.82;5.40;;;;;;;-148.88;100.00;74895.78;5082513;28;20032;-79
2023/03/31 05:51:50;;;;;;;7.95;2.72;;;;;;;-148.88;100.00;74883.59;5063542;28;20024;-78
2023/03/31 05:54:15;;;;;;;10.05;2.33;;;;;;;-148.88;100.00;74883.59;5081919;28;20086;-78
2023/03/31 05:56:41;;;;;;;13.05;5.15;;;;;;;-148.88;100.00;74879.53;5081697;28;20024;-79
2023/03/31 05:59:06;;;;;;;9.68;3.00;;;;;;;-148.88;100.00;74877.50;5059497;28;20032;-78
2023/03/31 06:01:31;;;;;;;12.40;4.80;;;;;;;-148.88;100.00;74871.41;5059022;28;20020;-78
2023/03/31 06:03:56;;;;;;;10.82;3.58;;;;;;;-148.88;100.00;74865.31;5081268;28;20436;-79
2023/03/31 06:06:22;;;;;;;11.27;2.83;;;;;;;-148.88;100.00;74863.28;5081624;28;20021;-78
2023/03/31 06:08:48;;;;;;;6.65;2.58;;;;;;;-148.88;100.00;74863.28;5081781;28;20088;-78
2023/03/31 06:11:18;;;;;;;7.70;2.88;;;;;;;-148.88;100.00;74863.28;5062819;28;20031;-79
2023/03/31 06:13:43;;;;;;;7.50;2.90;;;;;;;-148.88;100.00;74851.09;5064230;28;20027;-79
2023/03/31 06:16:11;;;;;;;6.93;2.80;;;;;;;-148.88;100.00;74853.13;5080790;28;20021;-79
2023/03/31 06:18:36;;;;;;;12.70;3.17;;;;;;;-148.88;100.00;74855.16;5080602;28;20028;-79
2023/03/31 06:21:02;;;;;;;7.00;2.67;;;;;;;-148.88;100.00;74847.03;5062457;28;20020;-78
2023/03/31 06:23:27;;;;;;;8.15;2.70;;;;;;;-148.88;100.00;74838.91;5080373;28;20024;-79
2023/03/31 06:25:53;;;;;;;9.15;4.50;;;;;;;-148.88;100.00;74836.88;5080219;28;20031;-78
2023/03/31 06:28:20;;;;;;;11.05;2.95;;;;;;;-148.88;100.00;74826.72;5079769;28;20141;-78
2023/03/31 06:30:45;;;;;;;8.63;2.33;;;;;;;-148.88;100.00;74812.53;5080082;28;20024;-78
2023/03/31 06:33:12;;;;;;;9.02;2.25;;;;;;;-148.88;100.00;74822.66;5080109;28;20032;-78
2023/03/31 06:35:38;;;;;;;8.63;3.80;;;;;;;-148.88;100.00;74822.66;5077126;28;20467;-77
2023/03/31 06:38:03;;;;;;;6.13;2.08;;;;;;;-148.88;100.00;74816.56;5079344;28;20471;-78
2023/03/31 06:40:28;;;;;;;8.60;2.03;;;;;;;-148.88;100.00;74810.50;5079161;28;20048;-78
2023/03/31 06:42:54;;;;;;;11.00;2.28;;;;;;;-148.88;100.00;74796.28;5079220;28;20394;-78
2023/03/31 06:45:19;;;;;;;9.13;3.33;;;;;;;-148.88;100.00;74790.19;5078968;28;20029;-78
2023/03/31 06:47:45;;;;;;;12.88;1.85;;;;;;;-148.88;100.00;74784.09;5060971;28;20111;-78
2023/03/31 06:50:10;;;;;;;7.88;1.83;;;;;;;-148.88;100.00;74778.00;5078610;28;20127;-78
2023/03/31 06:52:35;;;;;;;9.93;3.33;;;;;;;-148.88;100.00;74769.88;5078846;28;20016;-78
2023/03/31 06:55:01;;;;;;;7.07;2.78;;;;;;;-148.88;100.00;74767.84;5085414;22;20037;-83
2023/03/31 06:57:27;;;;;;;8.77;1.90;;;;;;;-148.88;100.00;74767.84;5076418;28;20438;-83
2023/03/31 06:59:53;;;;;;;9.63;3.33;;;;;;;-148.88;100.00;74761.75;5058259;28;20016;-83
2023/03/31 07:02:18;;;;;;;6.70;2.17;;;;;;;-148.88;100.00;74753.63;5075985;28;20052;-84
2023/03/31 07:04:44;;;;;;;6.00;1.48;;;;;;;-148.88;100.00;74743.47;5075704;28;20024;-83
2023/03/31 07:07:09;;;;;;;6.32;1.73;;;;;;;-148.88;100.00;74735.34;5074985;28;20387;-82
2023/03/31 07:12:04;;;;;;;10.27;1.60;;;;;;;-148.88;100.00;74725.19;5072250;28;20572;-77
2023/03/31 07:14:30;;;;;;;9.00;2.75;;;;;;;-148.88;100.00;74710.97;5056578;28;20024;-77
2023/03/31 07:16:55;;;;;;;4.32;1.67;;;;;;;-148.88;100.00;74704.88;5074625;28;20103;-77
2023/03/31 07:19:20;;;;;;;6.10;1.98;;;;;;;-148.88;100.00;74694.75;5075455;28;20020;-79
2023/03/31 07:21:45;;;;;;;4.85;1.65;;;;;;;-148.88;100.00;74686.63;5076503;28;20035;-79
2023/03/31 07:24:11;;;;;;;3.38;1.10;;;;;;;-148.88;100.00;74670.38;5076030;28;20031;-77
2023/03/31 07:26:36;;;;;;;5.15;1.52;;;;;;;-148.88;100.00;74672.41;5075588;28;20497;-79
2023/03/31 07:29:01;;;;;;;6.40;2.40;;;;;;;-148.88;100.00;74666.31;5075957;28;20108;-79
2023/03/31 07:31:28;;;;;;;6.35;1.25;;;;;;;-148.88;100.00;74666.31;5075557;28;20039;-78
2023/03/31 07:33:53;;;;;;;10.18;2.70;;;;;;;-148.88;100.00;74660.22;5077606;28;20079;-78
2023/03/31 07:36:18;;;;;;;6.32;2.38;;;;;;;-148.88;100.00;74648.03;5060225;28;20558;-78
2023/03/31 07:38:47;;;;;;;2.88;1.58;;;;;;;-148.88;100.00;74641.94;5078745;28;20031;-78
2023/03/31 07:41:14;;;;;;;7.78;2.20;;;;;;;-148.88;100.00;74631.78;5079315;28;20025;-77
2023/03/31 07:43:40;;;;;;;5.15;1.50;;;;;;;-148.88;100.00;74627.72;5079249;28;20024;-77
2023/03/31 07:46:07;;;;;;;6.95;2.47;;;;;;;-148.88;100.00;74627.72;5078178;28;20100;-78
2023/03/31 07:48:32;;;;;;;4.00;1.00;;;;;;;-148.88;100.00;74623.66;5059791;28;20082;-78
2023/03/31 07:50:58;;;;;;;4.47;1.77;;;;;;;-148.88;100.00;74627.72;5077909;28;20029;-78
2023/03/31 07:53:24;;;;;;;5.22;2.00;;;;;;;-148.88;100.00;74615.53;5059350;28;20028;-78
2023/03/31 07:55:49;;;;;;;5.60;1.60;;;;;;;-148.88;100.00;74611.47;5059249;28;20020;-77
2023/03/31 07:58:15;;;;;;;4.75;1.17;;;;;;;-148.88;100.00;74611.47;5077718;28;20031;-77
2023/03/31 08:00:41;;;;;;;8.02;1.40;;;;;;;-148.88;100.00;74601.31;5077316;28;20064;-78
2023/03/31 08:03:06;;;;;;;5.50;1.92;;;;;;;-148.88;100.00;74601.31;5058445;28;20222;-77
2023/03/31 08:05:32;;;;;;;4.38;1.70;;;;;;;-148.88;100.00;74599.28;5058754;28;20150;-78
2023/03/31 08:07:57;;;;;;;9.43;2.08;;;;;;;-148.88;100.00;74595.25;5077527;28;20024;-78
2023/03/31 08:10:25;;;;;;;6.28;1.50;;;;;;;-148.88;100.00;74595.25;5077155;28;20509;-78
2023/03/31 08:12:51;;;;;;;3.72;1.60;;;;;;;-148.88;100.00;74593.22;5078389;28;20085;-76
2023/03/31 08:15:17;;;;;;;6.47;1.70;;;;;;;-148.88;100.00;74591.19;5078432;28;20491;-77
2023/03/31 08:17:43;;;;;;;3.60;1.00;;;;;;;-148.88;100.00;74585.09;5078242;28;20031;-77
2023/03/31 08:20:09;;;;;;;3.97;1.15;;;;;;;-148.88;100.00;74587.13;5078052;28;20024;-78
2023/03/31 08:22:36;;;;;;;4.68;1.95;;;;;;;-148.88;100.00;74591.19;5059992;28;20028;-77
2023/03/31 08:25:02;;;;;;;6.07;1.35;;;;;;;-148.88;100.00;74591.19;5077746;28;20489;-78
2023/03/31 08:27:27;;;;;;;6.25;2.38;;;;;;;-148.88;100.00;74593.22;5059175;28;20024;-78
2023/03/31 08:29:52;;;;;;;6.18;2.00;;;;;;;-148.88;100.00;74603.34;5059971;28;20021;-77
2023/03/31 08:32:21;;;;;;;4.97;1.88;;;;;;;-148.88;100.00;74615.53;5076861;28;20043;-78
2023/03/31 08:34:46;;;;;;;6.18;2.65;;;;;;;-148.88;100.00;74615.53;5059347;28;20107;-78
2023/03/31 08:37:12;;;;;;;6.55;2.80;;;;;;;-148.88;100.00;74623.66;5059294;28;20443;-78
2023/03/31 08:39:37;;;;;;;5.07;1.95;;;;;;;-148.88;100.00;74627.72;5077254;28;20032;-78
2023/03/31 08:42:13;;;;;;;5.03;1.52;;;;;;;-148.88;100.00;74631.78;5076712;28;20020;-78
2023/03/31 08:44:44;;;;;;;5.07;2.35;;;;;;;-148.88;100.00;74639.91;5076780;28;20027;-78
2023/03/31 08:47:17;;;;;;;6.47;1.75;;;;;;;-148.88;100.00;74643.97;5076548;28;20523;-78
2023/03/31 08:49:51;;;;;;;2.87;1.60;;;;;;;-148.88;100.00;74648.03;5078016;28;20020;-77
2023/03/31 08:52:23;;;;;;;7.15;2.40;;;;;;;-148.88;100.00;74646.00;5078078;28;20348;-79
2023/03/31 08:54:54;;;;;;;5.43;2.33;;;;;;;-148.88;100.00;74646.00;5077884;28;20044;-78
2023/03/31 08:57:39;;;;;;;11.35;1.80;;;;;;;-148.88;100.00;74648.03;5077271;28;20017;-77
2023/03/31 09:00:09;;;;;;;7.40;1.80;;;;;;;-148.88;100.00;74639.91;5077047;28;20103;-77
2023/03/31 09:02:56;;;;;;;4.35;1.70;;;;;;;-148.88;100.00;74643.97;5058624;28;20016;-78
2023/03/31 09:05:53;;;;;;;3.78;1.67;;;;;;;-148.88;100.00;74648.03;5076372;28;20517;-78
2023/03/31 09:08:27;;;;;;;3.78;1.77;;;;;;;-148.88;100.00;74648.03;5055561;28;20391;-78
2023/03/31 09:11:11;;;;;;;4.45;2.30;;;;;;;-148.88;100.00;74650.06;5076706;28;20024;-78
2023/03/31 09:13:55;;;;;;;6.40;3.08;;;;;;;-148.88;100.00;74643.97;5076499;28;20020;-78
2023/03/31 09:16:20;;;;;;;4.82;1.38;;;;;;;-148.88;100.00;74643.97;5081129;28;20021;-78
2023/03/31 09:18:46;;;;;;;4.40;1.30;;;;;;;-148.88;100.00;74635.84;5062879;28;20024;-78
2023/03/31 09:21:31;;;;;;;5.93;2.03;;;;;;;-148.88;100.00;74639.91;5080823;28;20307;-78
2023/03/31 09:24:03;;;;;;;3.25;1.70;;;;;;;-148.88;100.00;74639.91;5081405;28;20086;-78
2023/03/31 09:26:43;;;;;;;3.65;1.05;;;;;;;-148.88;100.00;74643.97;5081865;28;20490;-78
2023/03/31 09:29:28;;;;;;;3.05;1.00;;;;;;;-148.88;100.00;74629.75;5081556;28;20025;-78
2023/03/31 09:31:55;;;;;;;4.70;1.95;;;;;;;-148.88;100.00;74623.66;5063362;28;20028;-78
2023/03/31 09:34:26;;;;;;;5.75;2.30;;;;;;;-148.88;100.00;74621.63;5062607;28;20024;-78
2023/03/31 09:36:51;;;;;;;4.63;1.90;;;;;;;-148.88;100.00;74633.81;5078570;28;20051;-77
2023/03/31 09:39:16;;;;;;;2.38;1.23;;;;;;;-148.88;100.00;74623.66;5078264;28;20029;-78
2023/03/31 09:41:45;;;;;;;2.65;1.02;;;;;;;-148.88;100.00;74623.66;5060336;28;20123;-77
2023/03/31 09:44:24;;;;;;;2.17;1.13;;;;;;;-148.88;100.00;74619.59;5078048;28;20021;-77
2023/03/31 09:46:50;;;;;;;3.97;2.13;;;;;;;-148.88;100.00;74611.47;5077720;28;20024;-78
2023/03/31 09:49:20;;;;;;;4.47;2.05;;;;;;;-148.88;100.00;74609.44;5059848;28;20020;-77
2023/03/31 09:51:53;;;;;;;5.45;2.03;;;;;;;-148.88;100.00;74611.47;5077532;28;20025;-78
2023/03/31 09:54:27;;;;;;;2.10;1.13;;;;;;;-148.88;100.00;74595.25;5059653;28;20028;-77
2023/03/31 09:56:53;;;;;;;2.50;1.05;;;;;;;-148.88;100.00;74603.34;5077942;28;20028;-78
2023/03/31 09:59:28;;;;;;;5.63;2.28;;;;;;;-148.88;100.00;74583.06;5059494;28;20028;-78
2023/03/31 10:01:57;;;;;;;4.68;1.38;;;;;;;-148.88;100.00;74591.19;5077603;28;20021;-77
2023/03/31 10:04:26;;;;;;;5.80;1.17;;;;;;;-148.88;100.00;74589.16;5060463;28;20031;-76
2023/03/31 10:06:53;;;;;;;6.03;2.00;;;;;;;-148.88;100.00;74572.91;5077475;28;20020;-77
2023/03/31 10:09:23;;;;;;;7.60;2.00;;;;;;;-148.88;100.00;74562.75;5077663;28;20033;-77
2023/03/31 10:12:03;;;;;;;4.25;2.00;;;;;;;-148.88;100.00;74556.66;5077681;28;20503;-77
2023/03/31 10:14:46;;;;;;;5.65;1.83;;;;;;;-148.88;100.00;74562.75;5078107;28;20532;-77
2023/03/31 10:17:17;;;;;;;2.03;1.00;;;;;;;-148.88;100.00;74562.75;5077631;28;20024;-77
2023/03/31 10:19:49;;;;;;;5.85;1.42;;;;;;;-148.88;100.00;74558.69;5059355;28;20047;-78
2023/03/31 10:22:15;;;;;;;6.10;1.98;;;;;;;-148.88;100.00;74556.66;5059094;28;20025;-77
2023/03/31 10:24:43;;;;;;;4.50;1.70;;;;;;;-148.88;100.00;74548.53;5077285;28;20027;-78
2023/03/31 10:27:21;;;;;;;5.35;1.92;;;;;;;-148.88;100.00;74570.88;5076110;28;20055;-80
2023/03/31 10:29:50;;;;;;;2.53;1.00;;;;;;;-148.88;100.00;74579.00;5059425;28;20025;-77
2023/03/31 10:32:19;;;;;;;4.90;1.33;;;;;;;-148.88;100.00;74579.00;5077240;28;20039;-78
2023/03/31 10:34:45;;;;;;;7.30;1.95;;;;;;;-148.88;100.00;74566.81;5077138;28;20524;-78
2023/03/31 10:37:16;;;;;;;4.97;1.42;;;;;;;-148.88;100.00;74564.78;5076557;28;20025;-77
2023/03/31 10:39:42;;;;;;;5.72;2.17;;;;;;;-148.88;100.00;74552.59;5077952;28;20024;-76
2023/03/31 10:42:08;;;;;;;5.70;1.90;;;;;;;-148.88;100.00;74550.56;5076967;28;20035;-78
2023/03/31 10:44:36;;;;;;;6.10;1.33;;;;;;;-148.88;100.00;74540.41;5059024;28;20024;-77
2023/03/31 10:47:14;;;;;;;3.92;1.80;;;;;;;-148.88;100.00;74546.50;5076134;28;20024;-77
2023/03/31 10:49:41;;;;;;;5.25;2.17;;;;;;;-148.88;100.00;74532.28;5058287;28;20055;-77
2023/03/31 10:52:17;;;;;;;2.35;1.40;;;;;;;-148.88;100.00;74526.19;5076469;28;20479;-77
2023/03/31 10:54:47;;;;;;;7.13;2.08;;;;;;;-148.88;100.00;74528.22;5076016;28;20112;-78
2023/03/31 10:57:13;;;;;;;5.10;1.80;;;;;;;-148.88;100.00;74514.00;5076158;28;20066;-77
2023/03/31 10:59:58;;;;;;;6.72;2.33;;;;;;;-148.88;100.00;74514.00;5076012;28;20558;-77
2023/03/31 11:03:01;;;;;;;8.35;2.30;;;;;;;-148.88;100.00;74518.06;5076597;28;20038;-78
2023/03/31 11:05:50;;;;;;;3.55;1.30;;;;;;;-148.88;100.00;74522.13;5076461;28;20024;-77
2023/03/31 11:08:29;;;;;;;6.47;2.25;;;;;;;-148.88;100.00;74526.19;5076793;28;20025;-78
2023/03/31 11:11:26;;;;;;;4.20;2.20;;;;;;;-148.88;100.00;74530.25;5057847;28;20036;-77
2023/03/31 11:14:04;;;;;;;8.57;2.45;;;;;;;-148.88;100.00;74530.25;5075867;28;20059;-78
2023/03/31 11:16:51;;;;;;;7.82;2.17;;;;;;;-148.88;100.00;74534.31;5058438;28;20479;-77
2023/03/31 11:19:27;;;;;;;5.00;1.50;;;;;;;-148.88;100.00;74520.09;5076650;28;20028;-77
2023/03/31 11:22:10;;;;;;;6.50;2.55;;;;;;;-148.88;100.00;74524.16;5058562;28;20525;-78
2023/03/31 11:24:55;;;;;;;5.85;2.70;;;;;;;-148.88;100.00;74524.16;5076196;28;20064;-78
2023/03/31 11:27:50;;;;;;;5.93;3.10;;;;;;;-148.88;100.00;74524.16;5076103;28;20028;-77